sensor_id;sensor_type;location;lat;lon;timestamp;pressure;altitude;pressure_sealevel;temperature
45393;BMP280;31129;44.810;10.334;2023-11-19T00:00:20;101337.75;;;10.06
45393;BMP280;31129;44.810;10.334;2023-11-19T00:02:45;101347.16;;;10.05
45393;BMP280;31129;44.810;10.334;2023-11-19T00:05:13;101339.72;;;10.06
45393;BMP280;31129;44.810;10.334;2023-11-19T00:07:39;101332.06;;;10.13
45393;BMP280;31129;44.810;10.334;2023-11-19T00:10:13;101324.56;;;10.05
45393;BMP280;31129;44.810;10.334;2023-11-19T00:12:41;101336.81;;;10.00
45393;BMP280;31129;44.810;10.334;2023-11-19T00:15:07;101327.53;;;10.10
45393;BMP280;31129;44.810;10.334;2023-11-19T00:17:45;101336.00;;;10.12
45393;BMP280;31129;44.810;10.334;2023-11-19T00:20:14;101342.66;;;10.11
45393;BMP280;31129;44.810;10.334;2023-11-19T00:22:41;101353.38;;;10.06
45393;BMP280;31129;44.810;10.334;2023-11-19T00:25:09;101341.00;;;10.14
45393;BMP280;31129;44.810;10.334;2023-11-19T00:27:38;101347.53;;;10.16
45393;BMP280;31129;44.810;10.334;2023-11-19T00:30:05;101352.91;;;10.07
45393;BMP280;31129;44.810;10.334;2023-11-19T00:32:32;101350.72;;;10.15
45393;BMP280;31129;44.810;10.334;2023-11-19T00:34:58;101337.31;;;10.08
45393;BMP280;31129;44.810;10.334;2023-11-19T00:37:24;101348.88;;;10.12
45393;BMP280;31129;44.810;10.334;2023-11-19T00:39:49;101340.41;;;10.10
45393;BMP280;31129;44.810;10.334;2023-11-19T00:42:15;101349.09;;;10.05
45393;BMP280;31129;44.810;10.334;2023-11-19T00:44:40;101348.28;;;9.95
45393;BMP280;31129;44.810;10.334;2023-11-19T00:47:07;101337.06;;;9.93
45393;BMP280;31129;44.810;10.334;2023-11-19T00:49:32;101327.06;;;9.90
45393;BMP280;31129;44.810;10.334;2023-11-19T00:52:01;101329.38;;;9.79
45393;BMP280;31129;44.810;10.334;2023-11-19T00:54:27;101328.59;;;9.78
45393;BMP280;31129;44.810;10.334;2023-11-19T00:56:53;101332.31;;;9.84
45393;BMP280;31129;44.810;10.334;2023-11-19T00:59:18;101335.72;;;9.76
45393;BMP280;31129;44.810;10.334;2023-11-19T01:01:44;101338.38;;;9.67
45393;BMP280;31129;44.810;10.334;2023-11-19T01:04:10;101337.69;;;9.75
45393;BMP280;31129;44.810;10.334;2023-11-19T01:06:35;101335.94;;;9.81
45393;BMP280;31129;44.810;10.334;2023-11-19T01:09:01;101333.72;;;9.54
45393;BMP280;31129;44.810;10.334;2023-11-19T01:11:27;101333.66;;;9.67
45393;BMP280;31129;44.810;10.334;2023-11-19T01:13:56;101339.34;;;9.60
45393;BMP280;31129;44.810;10.334;2023-11-19T01:16:21;101334.00;;;9.69
45393;BMP280;31129;44.810;10.334;2023-11-19T01:18:48;101333.13;;;9.59
45393;BMP280;31129;44.810;10.334;2023-11-19T01:21:15;101328.34;;;9.63
45393;BMP280;31129;44.810;10.334;2023-11-19T01:23:41;101315.75;;;9.57
45393;BMP280;31129;44.810;10.334;2023-11-19T01:26:11;101326.06;;;9.62
45393;BMP280;31129;44.810;10.334;2023-11-19T01:28:37;101321.03;;;9.60
45393;BMP280;31129;44.810;10.334;2023-11-19T01:31:05;101311.16;;;9.67
45393;BMP280;31129;44.810;10.334;2023-11-19T01:33:30;101306.13;;;9.65
45393;BMP280;31129;44.810;10.334;2023-11-19T01:35:56;101306.00;;;9.69
45393;BMP280;31129;44.810;10.334;2023-11-19T01:38:24;101306.50;;;9.76
45393;BMP280;31129;44.810;10.334;2023-11-19T01:40:50;101299.66;;;9.72
45393;BMP280;31129;44.810;10.334;2023-11-19T01:43:34;101290.63;;;9.62
45393;BMP280;31129;44.810;10.334;2023-11-19T01:46:01;101291.84;;;9.61
45393;BMP280;31129;44.810;10.334;2023-11-19T01:48:27;101291.50;;;9.59
45393;BMP280;31129;44.810;10.334;2023-11-19T01:50:53;101288.03;;;9.58
45393;BMP280;31129;44.810;10.334;2023-11-19T01:53:19;101270.38;;;9.63
45393;BMP280;31129;44.810;10.334;2023-11-19T01:55:49;101271.31;;;9.69
45393;BMP280;31129;44.810;10.334;2023-11-19T01:58:15;101274.81;;;9.70
45393;BMP280;31129;44.810;10.334;2023-11-19T02:00:41;101270.72;;;9.65
45393;BMP280;31129;44.810;10.334;2023-11-19T02:03:07;101275.25;;;9.68
45393;BMP280;31129;44.810;10.334;2023-11-19T02:05:34;101279.31;;;9.63
45393;BMP280;31129;44.810;10.334;2023-11-19T02:08:00;101274.34;;;9.49
45393;BMP280;31129;44.810;10.334;2023-11-19T02:10:26;101272.00;;;9.60
45393;BMP280;31129;44.810;10.334;2023-11-19T02:12:51;101267.22;;;9.65
45393;BMP280;31129;44.810;10.334;2023-11-19T02:15:17;101262.19;;;9.63
45393;BMP280;31129;44.810;10.334;2023-11-19T02:17:44;101274.56;;;9.55
45393;BMP280;31129;44.810;10.334;2023-11-19T02:20:10;101257.28;;;9.49
45393;BMP280;31129;44.810;10.334;2023-11-19T02:22:40;101251.69;;;9.52
45393;BMP280;31129;44.810;10.334;2023-11-19T02:25:18;101249.66;;;9.31
45393;BMP280;31129;44.810;10.334;2023-11-19T02:27:56;101246.50;;;9.33
45393;BMP280;31129;44.810;10.334;2023-11-19T02:30:23;101233.22;;;9.35
45393;BMP280;31129;44.810;10.334;2023-11-19T02:33:00;101226.66;;;9.32
45393;BMP280;31129;44.810;10.334;2023-11-19T02:35:31;101224.72;;;9.33
45393;BMP280;31129;44.810;10.334;2023-11-19T02:37:57;101213.81;;;9.33
45393;BMP280;31129;44.810;10.334;2023-11-19T02:40:23;101217.53;;;9.39
45393;BMP280;31129;44.810;10.334;2023-11-19T02:42:49;101215.69;;;9.36
45393;BMP280;31129;44.810;10.334;2023-11-19T02:45:15;101211.63;;;9.40
45393;BMP280;31129;44.810;10.334;2023-11-19T02:47:41;101204.53;;;9.43
45393;BMP280;31129;44.810;10.334;2023-11-19T02:50:10;101208.91;;;9.40
45393;BMP280;31129;44.810;10.334;2023-11-19T02:52:51;101197.72;;;9.38
45393;BMP280;31129;44.810;10.334;2023-11-19T02:55:17;101192.13;;;9.42
45393;BMP280;31129;44.810;10.334;2023-11-19T02:57:43;101180.34;;;9.45
45393;BMP280;31129;44.810;10.334;2023-11-19T03:00:21;101194.63;;;9.49
45393;BMP280;31129;44.810;10.334;2023-11-19T03:02:51;101185.16;;;9.41
45393;BMP280;31129;44.810;10.334;2023-11-19T03:05:35;101196.03;;;9.41
45393;BMP280;31129;44.810;10.334;2023-11-19T03:08:00;101179.69;;;9.41
45393;BMP280;31129;44.810;10.334;2023-11-19T03:10:26;101184.91;;;9.48
45393;BMP280;31129;44.810;10.334;2023-11-19T03:12:51;101179.97;;;9.34
45393;BMP280;31129;44.810;10.334;2023-11-19T03:15:17;101181.91;;;9.33
45393;BMP280;31129;44.810;10.334;2023-11-19T03:17:46;101170.47;;;9.38
45393;BMP280;31129;44.810;10.334;2023-11-19T03:20:12;101161.28;;;9.23
45393;BMP280;31129;44.810;10.334;2023-11-19T03:22:42;101158.78;;;9.16
45393;BMP280;31129;44.810;10.334;2023-11-19T03:25:08;101159.09;;;9.18
45393;BMP280;31129;44.810;10.334;2023-11-19T03:27:37;101170.81;;;9.06
45393;BMP280;31129;44.810;10.334;2023-11-19T03:30:09;101167.34;;;9.27
45393;BMP280;31129;44.810;10.334;2023-11-19T03:32:35;101169.06;;;9.12
45393;BMP280;31129;44.810;10.334;2023-11-19T03:35:01;101161.41;;;9.19
45393;BMP280;31129;44.810;10.334;2023-11-19T03:37:28;101169.63;;;9.28
45393;BMP280;31129;44.810;10.334;2023-11-19T03:39:54;101169.00;;;9.24
45393;BMP280;31129;44.810;10.334;2023-11-19T03:42:20;101175.03;;;9.19
45393;BMP280;31129;44.810;10.334;2023-11-19T03:44:49;101172.03;;;9.26
45393;BMP280;31129;44.810;10.334;2023-11-19T03:47:36;101182.03;;;9.08
45393;BMP280;31129;44.810;10.334;2023-11-19T03:50:02;101176.00;;;9.13
45393;BMP280;31129;44.810;10.334;2023-11-19T03:52:28;101180.88;;;9.18
45393;BMP280;31129;44.810;10.334;2023-11-19T03:54:55;101186.44;;;9.14
45393;BMP280;31129;44.810;10.334;2023-11-19T03:57:21;101192.88;;;9.20
45393;BMP280;31129;44.810;10.334;2023-11-19T03:59:47;101187.34;;;9.11
45393;BMP280;31129;44.810;10.334;2023-11-19T04:02:13;101177.50;;;8.92
45393;BMP280;31129;44.810;10.334;2023-11-19T04:04:38;101172.44;;;9.03
45393;BMP280;31129;44.810;10.334;2023-11-19T04:07:05;101174.53;;;8.99
45393;BMP280;31129;44.810;10.334;2023-11-19T04:09:30;101182.81;;;8.95
45393;BMP280;31129;44.810;10.334;2023-11-19T04:11:58;101180.94;;;9.05
45393;BMP280;31129;44.810;10.334;2023-11-19T04:14:23;101184.09;;;9.04
45393;BMP280;31129;44.810;10.334;2023-11-19T04:16:49;101187.38;;;8.99
45393;BMP280;31129;44.810;10.334;2023-11-19T04:19:14;101191.63;;;8.87
45393;BMP280;31129;44.810;10.334;2023-11-19T04:21:40;101197.50;;;8.85
45393;BMP280;31129;44.810;10.334;2023-11-19T04:24:10;101189.28;;;8.76
45393;BMP280;31129;44.810;10.334;2023-11-19T04:26:43;101183.91;;;8.85
45393;BMP280;31129;44.810;10.334;2023-11-19T04:29:14;101179.72;;;8.59
45393;BMP280;31129;44.810;10.334;2023-11-19T04:31:42;101184.28;;;8.75
45393;BMP280;31129;44.810;10.334;2023-11-19T04:34:08;101174.38;;;8.81
45393;BMP280;31129;44.810;10.334;2023-11-19T04:36:34;101176.00;;;8.78
45393;BMP280;31129;44.810;10.334;2023-11-19T04:39:00;101181.75;;;8.80
45393;BMP280;31129;44.810;10.334;2023-11-19T04:41:26;101180.50;;;8.72
45393;BMP280;31129;44.810;10.334;2023-11-19T04:43:53;101173.72;;;8.77
45393;BMP280;31129;44.810;10.334;2023-11-19T04:46:19;101178.09;;;8.62
45393;BMP280;31129;44.810;10.334;2023-11-19T04:48:44;101183.84;;;8.64
45393;BMP280;31129;44.810;10.334;2023-11-19T04:51:10;101172.19;;;8.76
45393;BMP280;31129;44.810;10.334;2023-11-19T04:53:36;101164.94;;;8.73
45393;BMP280;31129;44.810;10.334;2023-11-19T04:56:07;101161.31;;;8.76
45393;BMP280;31129;44.810;10.334;2023-11-19T04:58:33;101154.91;;;8.70
45393;BMP280;31129;44.810;10.334;2023-11-19T05:00:59;101150.22;;;8.70
45393;BMP280;31129;44.810;10.334;2023-11-19T05:03:24;101144.56;;;8.65
45393;BMP280;31129;44.810;10.334;2023-11-19T05:05:50;101136.28;;;8.68
45393;BMP280;31129;44.810;10.334;2023-11-19T05:08:15;101132.59;;;8.75
45393;BMP280;31129;44.810;10.334;2023-11-19T05:10:41;101120.81;;;8.78
45393;BMP280;31129;44.810;10.334;2023-11-19T05:13:06;101127.94;;;8.63
45393;BMP280;31129;44.810;10.334;2023-11-19T05:15:32;101130.03;;;8.58
45393;BMP280;31129;44.810;10.334;2023-11-19T05:17:58;101120.91;;;8.40
45393;BMP280;31129;44.810;10.334;2023-11-19T05:20:24;101122.50;;;8.63
45393;BMP280;31129;44.810;10.334;2023-11-19T05:22:49;101118.03;;;8.56
45393;BMP280;31129;44.810;10.334;2023-11-19T05:25:16;101113.09;;;8.42
45393;BMP280;31129;44.810;10.334;2023-11-19T05:27:42;101111.97;;;8.52
45393;BMP280;31129;44.810;10.334;2023-11-19T05:30:07;101099.91;;;8.53
45393;BMP280;31129;44.810;10.334;2023-11-19T05:32:33;101120.75;;;8.56
45393;BMP280;31129;44.810;10.334;2023-11-19T05:35:03;101108.44;;;8.64
45393;BMP280;31129;44.810;10.334;2023-11-19T05:37:28;101116.50;;;8.55
45393;BMP280;31129;44.810;10.334;2023-11-19T05:39:54;101106.31;;;8.59
45393;BMP280;31129;44.810;10.334;2023-11-19T05:42:19;101109.47;;;8.57
45393;BMP280;31129;44.810;10.334;2023-11-19T05:44:45;101111.50;;;8.53
45393;BMP280;31129;44.810;10.334;2023-11-19T05:47:11;101120.66;;;8.47
45393;BMP280;31129;44.810;10.334;2023-11-19T05:49:39;101117.69;;;8.54
45393;BMP280;31129;44.810;10.334;2023-11-19T05:52:05;101107.94;;;8.44
45393;BMP280;31129;44.810;10.334;2023-11-19T05:54:33;101103.38;;;8.41
45393;BMP280;31129;44.810;10.334;2023-11-19T05:57:06;101103.25;;;8.57
45393;BMP280;31129;44.810;10.334;2023-11-19T05:59:35;101099.84;;;8.66
45393;BMP280;31129;44.810;10.334;2023-11-19T06:02:02;101084.78;;;8.52
45393;BMP280;31129;44.810;10.334;2023-11-19T06:04:27;101097.53;;;8.30
45393;BMP280;31129;44.810;10.334;2023-11-19T06:06:53;101093.75;;;8.27
45393;BMP280;31129;44.810;10.334;2023-11-19T06:09:21;101087.88;;;8.29
45393;BMP280;31129;44.810;10.334;2023-11-19T06:11:49;101098.16;;;8.34
45393;BMP280;31129;44.810;10.334;2023-11-19T06:14:14;101094.34;;;8.44
45393;BMP280;31129;44.810;10.334;2023-11-19T06:16:40;101095.13;;;8.44
45393;BMP280;31129;44.810;10.334;2023-11-19T06:19:05;101099.38;;;8.33
45393;BMP280;31129;44.810;10.334;2023-11-19T06:21:31;101103.91;;;8.48
45393;BMP280;31129;44.810;10.334;2023-11-19T06:23:56;101119.38;;;8.39
45393;BMP280;31129;44.810;10.334;2023-11-19T06:26:23;101111.91;;;8.43
45393;BMP280;31129;44.810;10.334;2023-11-19T06:28:48;101116.31;;;8.37
45393;BMP280;31129;44.810;10.334;2023-11-19T06:31:14;101118.94;;;8.53
45393;BMP280;31129;44.810;10.334;2023-11-19T06:33:41;101105.69;;;8.17
45393;BMP280;31129;44.810;10.334;2023-11-19T06:36:07;101102.97;;;8.04
45393;BMP280;31129;44.810;10.334;2023-11-19T06:38:34;101110.81;;;7.89
45393;BMP280;31129;44.810;10.334;2023-11-19T06:41:00;101116.66;;;7.88
45393;BMP280;31129;44.810;10.334;2023-11-19T06:43:27;101111.31;;;7.72
45393;BMP280;31129;44.810;10.334;2023-11-19T06:45:53;101100.56;;;7.81
45393;BMP280;31129;44.810;10.334;2023-11-19T06:48:19;101119.91;;;7.83
45393;BMP280;31129;44.810;10.334;2023-11-19T06:50:44;101107.44;;;7.85
45393;BMP280;31129;44.810;10.334;2023-11-19T06:53:09;101104.25;;;7.74
45393;BMP280;31129;44.810;10.334;2023-11-19T06:55:35;101105.69;;;7.66
45393;BMP280;31129;44.810;10.334;2023-11-19T06:58:01;101102.00;;;7.98
45393;BMP280;31129;44.810;10.334;2023-11-19T07:00:27;101107.63;;;7.91
45393;BMP280;31129;44.810;10.334;2023-11-19T07:02:53;101111.75;;;7.96
45393;BMP280;31129;44.810;10.334;2023-11-19T07:05:19;101121.03;;;7.98
45393;BMP280;31129;44.810;10.334;2023-11-19T07:07:44;101127.00;;;8.06
45393;BMP280;31129;44.810;10.334;2023-11-19T07:10:12;101113.09;;;8.16
45393;BMP280;31129;44.810;10.334;2023-11-19T07:12:37;101120.03;;;8.17
45393;BMP280;31129;44.810;10.334;2023-11-19T07:15:03;101120.69;;;8.09
45393;BMP280;31129;44.810;10.334;2023-11-19T07:17:30;101121.03;;;7.98
45393;BMP280;31129;44.810;10.334;2023-11-19T07:19:56;101130.59;;;8.28
45393;BMP280;31129;44.810;10.334;2023-11-19T07:22:27;101133.41;;;8.12
45393;BMP280;31129;44.810;10.334;2023-11-19T07:24:55;101130.94;;;8.30
45393;BMP280;31129;44.810;10.334;2023-11-19T07:27:20;101137.19;;;8.52
45393;BMP280;31129;44.810;10.334;2023-11-19T07:29:46;101143.25;;;8.82
45393;BMP280;31129;44.810;10.334;2023-11-19T07:32:11;101143.38;;;8.66
45393;BMP280;31129;44.810;10.334;2023-11-19T07:34:38;101145.34;;;8.52
45393;BMP280;31129;44.810;10.334;2023-11-19T07:37:05;101145.31;;;8.65
45393;BMP280;31129;44.810;10.334;2023-11-19T07:39:30;101145.31;;;8.78
45393;BMP280;31129;44.810;10.334;2023-11-19T07:41:56;101141.94;;;8.74
45393;BMP280;31129;44.810;10.334;2023-11-19T07:44:21;101137.03;;;8.81
45393;BMP280;31129;44.810;10.334;2023-11-19T07:46:47;101127.97;;;8.84
45393;BMP280;31129;44.810;10.334;2023-11-19T07:49:13;101136.69;;;8.92
45393;BMP280;31129;44.810;10.334;2023-11-19T07:51:39;101142.13;;;8.92
45393;BMP280;31129;44.810;10.334;2023-11-19T07:54:04;101147.09;;;8.93
45393;BMP280;31129;44.810;10.334;2023-11-19T07:56:30;101151.50;;;9.13
45393;BMP280;31129;44.810;10.334;2023-11-19T07:58:55;101139.13;;;9.12
45393;BMP280;31129;44.810;10.334;2023-11-19T08:01:21;101146.53;;;9.11
45393;BMP280;31129;44.810;10.334;2023-11-19T08:03:48;101141.53;;;9.10
45393;BMP280;31129;44.810;10.334;2023-11-19T08:06:14;101145.28;;;9.12
45393;BMP280;31129;44.810;10.334;2023-11-19T08:08:39;101141.34;;;9.26
45393;BMP280;31129;44.810;10.334;2023-11-19T08:11:05;101149.13;;;9.37
45393;BMP280;31129;44.810;10.334;2023-11-19T08:13:31;101152.53;;;9.50
45393;BMP280;31129;44.810;10.334;2023-11-19T08:15:57;101160.28;;;9.51
45393;BMP280;31129;44.810;10.334;2023-11-19T08:18:24;101158.78;;;9.59
45393;BMP280;31129;44.810;10.334;2023-11-19T08:20:49;101160.31;;;9.82
45393;BMP280;31129;44.810;10.334;2023-11-19T08:23:19;101160.84;;;9.77
45393;BMP280;31129;44.810;10.334;2023-11-19T08:25:44;101170.56;;;9.78
45393;BMP280;31129;44.810;10.334;2023-11-19T08:28:10;101158.66;;;9.94
45393;BMP280;31129;44.810;10.334;2023-11-19T08:30:35;101171.13;;;10.04
45393;BMP280;31129;44.810;10.334;2023-11-19T08:33:01;101160.88;;;10.08
45393;BMP280;31129;44.810;10.334;2023-11-19T08:35:28;101154.06;;;10.13
45393;BMP280;31129;44.810;10.334;2023-11-19T08:37:54;101153.50;;;10.18
45393;BMP280;31129;44.810;10.334;2023-11-19T08:40:19;101156.81;;;10.22
45393;BMP280;31129;44.810;10.334;2023-11-19T08:42:45;101164.59;;;10.32
45393;BMP280;31129;44.810;10.334;2023-11-19T08:45:13;101150.28;;;10.96
45393;BMP280;31129;44.810;10.334;2023-11-19T08:47:39;101157.09;;;11.00
45393;BMP280;31129;44.810;10.334;2023-11-19T08:50:06;101162.88;;;11.12
45393;BMP280;31129;44.810;10.334;2023-11-19T08:52:31;101163.75;;;11.45
45393;BMP280;31129;44.810;10.334;2023-11-19T08:54:57;101148.06;;;11.55
45393;BMP280;31129;44.810;10.334;2023-11-19T08:57:22;101153.03;;;11.74
45393;BMP280;31129;44.810;10.334;2023-11-19T08:59:49;101148.41;;;11.48
45393;BMP280;31129;44.810;10.334;2023-11-19T09:02:15;101153.06;;;11.56
45393;BMP280;31129;44.810;10.334;2023-11-19T09:04:40;101157.81;;;11.47
45393;BMP280;31129;44.810;10.334;2023-11-19T09:07:06;101168.59;;;11.92
45393;BMP280;31129;44.810;10.334;2023-11-19T09:09:32;101165.63;;;11.72
45393;BMP280;31129;44.810;10.334;2023-11-19T09:12:01;101164.63;;;11.60
45393;BMP280;31129;44.810;10.334;2023-11-19T09:14:27;101171.19;;;11.45
45393;BMP280;31129;44.810;10.334;2023-11-19T09:16:52;101175.28;;;11.40
45393;BMP280;31129;44.810;10.334;2023-11-19T09:19:18;101171.06;;;11.39
45393;BMP280;31129;44.810;10.334;2023-11-19T09:21:43;101165.59;;;11.39
45393;BMP280;31129;44.810;10.334;2023-11-19T09:24:09;101177.09;;;11.43
45393;BMP280;31129;44.810;10.334;2023-11-19T09:26:34;101176.94;;;11.47
45393;BMP280;31129;44.810;10.334;2023-11-19T09:29:01;101168.13;;;11.52
45393;BMP280;31129;44.810;10.334;2023-11-19T09:31:27;101176.97;;;11.37
45393;BMP280;31129;44.810;10.334;2023-11-19T09:33:52;101176.03;;;11.41
45393;BMP280;31129;44.810;10.334;2023-11-19T09:36:17;101174.81;;;11.51
45393;BMP280;31129;44.810;10.334;2023-11-19T09:38:44;101169.34;;;11.51
45393;BMP280;31129;44.810;10.334;2023-11-19T09:41:10;101175.28;;;11.49
45393;BMP280;31129;44.810;10.334;2023-11-19T09:43:42;101172.44;;;11.86
45393;BMP280;31129;44.810;10.334;2023-11-19T09:46:13;101166.09;;;11.80
45393;BMP280;31129;44.810;10.334;2023-11-19T09:48:39;101173.69;;;11.76
45393;BMP280;31129;44.810;10.334;2023-11-19T09:51:10;101160.06;;;11.66
45393;BMP280;31129;44.810;10.334;2023-11-19T09:53:37;101165.22;;;11.64
45393;BMP280;31129;44.810;10.334;2023-11-19T09:56:06;101161.38;;;11.71
45393;BMP280;31129;44.810;10.334;2023-11-19T09:58:33;101157.13;;;11.79
45393;BMP280;31129;44.810;10.334;2023-11-19T10:01:00;101159.84;;;11.79
45393;BMP280;31129;44.810;10.334;2023-11-19T10:03:35;101165.75;;;11.87
45393;BMP280;31129;44.810;10.334;2023-11-19T10:06:04;101169.69;;;11.86
45393;BMP280;31129;44.810;10.334;2023-11-19T10:08:31;101168.94;;;11.85
45393;BMP280;31129;44.810;10.334;2023-11-19T10:10:57;101168.28;;;11.99
45393;BMP280;31129;44.810;10.334;2023-11-19T10:13:27;101162.34;;;12.01
45393;BMP280;31129;44.810;10.334;2023-11-19T10:15:55;101159.78;;;11.97
45393;BMP280;31129;44.810;10.334;2023-11-19T10:18:25;101151.59;;;11.97
45393;BMP280;31129;44.810;10.334;2023-11-19T10:20:51;101160.66;;;12.03
45393;BMP280;31129;44.810;10.334;2023-11-19T10:23:19;101157.31;;;12.08
45393;BMP280;31129;44.810;10.334;2023-11-19T10:25:45;101157.91;;;12.13
45393;BMP280;31129;44.810;10.334;2023-11-19T10:28:15;101163.19;;;12.64
45393;BMP280;31129;44.810;10.334;2023-11-19T10:30:42;101150.53;;;12.66
45393;BMP280;31129;44.810;10.334;2023-11-19T10:33:09;101152.56;;;12.80
45393;BMP280;31129;44.810;10.334;2023-11-19T10:35:36;101147.09;;;12.80
45393;BMP280;31129;44.810;10.334;2023-11-19T10:38:16;101131.06;;;12.88
45393;BMP280;31129;44.810;10.334;2023-11-19T10:40:41;101132.78;;;13.15
45393;BMP280;31129;44.810;10.334;2023-11-19T10:43:08;101127.09;;;13.04
45393;BMP280;31129;44.810;10.334;2023-11-19T10:45:35;101137.13;;;13.07
45393;BMP280;31129;44.810;10.334;2023-11-19T10:48:02;101127.31;;;13.00
45393;BMP280;31129;44.810;10.334;2023-11-19T10:50:29;101117.72;;;12.96
45393;BMP280;31129;44.810;10.334;2023-11-19T10:52:57;101125.78;;;12.85
45393;BMP280;31129;44.810;10.334;2023-11-19T10:55:28;101119.91;;;12.92
45393;BMP280;31129;44.810;10.334;2023-11-19T10:58:02;101107.94;;;13.04
45393;BMP280;31129;44.810;10.334;2023-11-19T11:03:12;101093.09;;;13.25
45393;BMP280;31129;44.810;10.334;2023-11-19T11:05:40;101083.56;;;13.21
45393;BMP280;31129;44.810;10.334;2023-11-19T11:08:09;101080.31;;;13.22
45393;BMP280;31129;44.810;10.334;2023-11-19T11:10:40;101083.78;;;13.52
45393;BMP280;31129;44.810;10.334;2023-11-19T11:13:07;101080.16;;;13.61
45393;BMP280;31129;44.810;10.334;2023-11-19T11:15:34;101079.81;;;13.53
45393;BMP280;31129;44.810;10.334;2023-11-19T11:18:01;101080.63;;;13.59
45393;BMP280;31129;44.810;10.334;2023-11-19T11:20:33;101070.59;;;13.71
45393;BMP280;31129;44.810;10.334;2023-11-19T11:28:32;101074.63;;;14.10
45393;BMP280;31129;44.810;10.334;2023-11-19T11:31:25;101079.41;;;14.15
45393;BMP280;31129;44.810;10.334;2023-11-19T11:34:04;101063.72;;;14.42
45393;BMP280;31129;44.810;10.334;2023-11-19T11:36:39;101055.91;;;14.60
45393;BMP280;31129;44.810;10.334;2023-11-19T11:39:08;101050.28;;;15.01
45393;BMP280;31129;44.810;10.334;2023-11-19T11:41:34;101040.09;;;14.76
45393;BMP280;31129;44.810;10.334;2023-11-19T11:43:59;101048.06;;;15.05
45393;BMP280;31129;44.810;10.334;2023-11-19T11:54:11;101027.31;;;15.04
45393;BMP280;31129;44.810;10.334;2023-11-19T12:02:11;101016.50;;;15.32
45393;BMP280;31129;44.810;10.334;2023-11-19T12:04:39;101011.59;;;15.53
45393;BMP280;31129;44.810;10.334;2023-11-19T12:07:16;101009.94;;;15.24
45393;BMP280;31129;44.810;10.334;2023-11-19T12:09:45;101009.91;;;15.18
45393;BMP280;31129;44.810;10.334;2023-11-19T12:12:19;101008.03;;;15.41
45393;BMP280;31129;44.810;10.334;2023-11-19T12:15:00;101022.00;;;15.91
45393;BMP280;31129;44.810;10.334;2023-11-19T12:19:57;101012.31;;;16.18
45393;BMP280;31129;44.810;10.334;2023-11-19T12:22:24;101003.81;;;16.27
45393;BMP280;31129;44.810;10.334;2023-11-19T12:24:51;100999.31;;;16.24
45393;BMP280;31129;44.810;10.334;2023-11-19T12:27:17;100997.78;;;16.06
45393;BMP280;31129;44.810;10.334;2023-11-19T12:29:43;100993.81;;;16.24
45393;BMP280;31129;44.810;10.334;2023-11-19T12:32:09;100981.81;;;16.66
45393;BMP280;31129;44.810;10.334;2023-11-19T12:34:35;100990.28;;;16.79
45393;BMP280;31129;44.810;10.334;2023-11-19T12:37:03;100988.25;;;16.80
45393;BMP280;31129;44.810;10.334;2023-11-19T12:39:32;100987.81;;;16.53
45393;BMP280;31129;44.810;10.334;2023-11-19T12:42:00;100991.28;;;16.65
45393;BMP280;31129;44.810;10.334;2023-11-19T12:44:26;100979.56;;;16.37
45393;BMP280;31129;44.810;10.334;2023-11-19T12:47:04;100969.78;;;16.47
45393;BMP280;31129;44.810;10.334;2023-11-19T12:49:32;100971.00;;;16.74
45393;BMP280;31129;44.810;10.334;2023-11-19T12:51:57;100963.72;;;16.76
45393;BMP280;31129;44.810;10.334;2023-11-19T12:54:34;100971.44;;;17.06
45393;BMP280;31129;44.810;10.334;2023-11-19T12:56:59;100962.44;;;17.00
45393;BMP280;31129;44.810;10.334;2023-11-19T12:59:25;100958.69;;;16.80
45393;BMP280;31129;44.810;10.334;2023-11-19T13:01:59;100954.97;;;16.83
45393;BMP280;31129;44.810;10.334;2023-11-19T13:04:29;100953.69;;;16.84
45393;BMP280;31129;44.810;10.334;2023-11-19T13:07:01;100943.38;;;16.96
45393;BMP280;31129;44.810;10.334;2023-11-19T13:09:29;100940.91;;;16.87
45393;BMP280;31129;44.810;10.334;2023-11-19T13:11:55;100937.59;;;16.94
45393;BMP280;31129;44.810;10.334;2023-11-19T13:14:36;100924.31;;;17.04
45393;BMP280;31129;44.810;10.334;2023-11-19T13:17:06;100926.00;;;17.23
45393;BMP280;31129;44.810;10.334;2023-11-19T13:19:32;100938.44;;;17.47
45393;BMP280;31129;44.810;10.334;2023-11-19T13:21:57;100920.72;;;17.72
45393;BMP280;31129;44.810;10.334;2023-11-19T13:24:22;100915.13;;;17.42
45393;BMP280;31129;44.810;10.334;2023-11-19T13:26:48;100920.56;;;17.59
45393;BMP280;31129;44.810;10.334;2023-11-19T13:29:14;100923.44;;;17.37
45393;BMP280;31129;44.810;10.334;2023-11-19T13:31:39;100913.50;;;17.17
45393;BMP280;31129;44.810;10.334;2023-11-19T13:34:05;100913.75;;;17.19
45393;BMP280;31129;44.810;10.334;2023-11-19T13:36:32;100905.44;;;17.65
45393;BMP280;31129;44.810;10.334;2023-11-19T13:38:57;100911.88;;;17.79
45393;BMP280;31129;44.810;10.334;2023-11-19T13:41:25;100905.66;;;18.03
45393;BMP280;31129;44.810;10.334;2023-11-19T13:43:51;100905.94;;;17.99
45393;BMP280;31129;44.810;10.334;2023-11-19T13:46:17;100907.28;;;18.23
45393;BMP280;31129;44.810;10.334;2023-11-19T13:48:42;100901.75;;;18.17
45393;BMP280;31129;44.810;10.334;2023-11-19T13:51:07;100912.44;;;18.32
45393;BMP280;31129;44.810;10.334;2023-11-19T13:53:35;100904.81;;;18.13
45393;BMP280;31129;44.810;10.334;2023-11-19T13:56:04;100898.38;;;18.05
45393;BMP280;31129;44.810;10.334;2023-11-19T13:58:29;100900.41;;;18.05
45393;BMP280;31129;44.810;10.334;2023-11-19T14:00:55;100888.47;;;18.21
45393;BMP280;31129;44.810;10.334;2023-11-19T14:03:20;100893.75;;;17.89
45393;BMP280;31129;44.810;10.334;2023-11-19T14:05:45;100891.59;;;17.77
45393;BMP280;31129;44.810;10.334;2023-11-19T14:08:11;100895.19;;;17.60
45393;BMP280;31129;44.810;10.334;2023-11-19T14:10:38;100891.09;;;17.31
45393;BMP280;31129;44.810;10.334;2023-11-19T14:13:08;100899.84;;;17.36
45393;BMP280;31129;44.810;10.334;2023-11-19T14:15:34;100901.59;;;17.39